sensor_id;sensor_type;location;lat;lon;timestamp;P1;durP1;ratioP1;P2;durP2;ratioP2
39848;SDS011;25518;47.878;15.914;2023-05-07T00:01:09;2.95;;;1.45;;
39848;SDS011;25518;47.878;15.914;2023-05-07T00:03:59;3.03;;;1.58;;
39848;SDS011;25518;47.878;15.914;2023-05-07T00:06:49;3.50;;;1.60;;
39848;SDS011;25518;47.878;15.914;2023-05-07T00:09:40;3.35;;;1.50;;
39848;SDS011;25518;47.878;15.914;2023-05-07T00:12:29;3.65;;;1.50;;
39848;SDS011;25518;47.878;15.914;2023-05-07T00:15:22;2.85;;;1.42;;
39848;SDS011;25518;47.878;15.914;2023-05-07T00:18:11;2.97;;;1.43;;
39848;SDS011;25518;47.878;15.914;2023-05-07T00:21:01;4.47;;;1.58;;
39848;SDS011;25518;47.878;15.914;2023-05-07T00:23:51;3.90;;;1.58;;
39848;SDS011;25518;47.878;15.914;2023-05-07T00:26:42;2.88;;;1.73;;
39848;SDS011;25518;47.878;15.914;2023-05-07T00:29:31;3.72;;;1.40;;
39848;SDS011;25518;47.878;15.914;2023-05-07T00:32:21;4.18;;;1.55;;
39848;SDS011;25518;47.878;15.914;2023-05-07T00:35:10;3.80;;;1.75;;
39848;SDS011;25518;47.878;15.914;2023-05-07T00:38:00;2.72;;;1.58;;
39848;SDS011;25518;47.878;15.914;2023-05-07T00:40:49;3.58;;;1.70;;
39848;SDS011;25518;47.878;15.914;2023-05-07T00:43:40;3.08;;;1.58;;
39848;SDS011;25518;47.878;15.914;2023-05-07T00:46:30;3.38;;;1.60;;
39848;SDS011;25518;47.878;15.914;2023-05-07T00:49:21;3.80;;;1.42;;
39848;SDS011;25518;47.878;15.914;2023-05-07T00:52:11;2.75;;;1.60;;
39848;SDS011;25518;47.878;15.914;2023-05-07T00:55:05;1.63;;;1.03;;
39848;SDS011;25518;47.878;15.914;2023-05-07T00:57:55;3.55;;;1.38;;
39848;SDS011;25518;47.878;15.914;2023-05-07T01:00:45;2.90;;;1.40;;
39848;SDS011;25518;47.878;15.914;2023-05-07T01:03:35;3.08;;;1.50;;
39848;SDS011;25518;47.878;15.914;2023-05-07T01:06:24;4.32;;;1.63;;
39848;SDS011;25518;47.878;15.914;2023-05-07T01:09:16;2.23;;;1.20;;
39848;SDS011;25518;47.878;15.914;2023-05-07T01:12:08;3.67;;;1.55;;
39848;SDS011;25518;47.878;15.914;2023-05-07T01:14:59;4.10;;;1.58;;
39848;SDS011;25518;47.878;15.914;2023-05-07T01:17:49;2.53;;;1.50;;
39848;SDS011;25518;47.878;15.914;2023-05-07T01:20:39;2.33;;;1.35;;
39848;SDS011;25518;47.878;15.914;2023-05-07T01:23:29;3.28;;;1.42;;
39848;SDS011;25518;47.878;15.914;2023-05-07T01:26:20;3.35;;;1.55;;
39848;SDS011;25518;47.878;15.914;2023-05-07T01:29:10;3.80;;;1.60;;
39848;SDS011;25518;47.878;15.914;2023-05-07T01:32:00;2.30;;;1.40;;
39848;SDS011;25518;47.878;15.914;2023-05-07T01:34:51;3.10;;;1.60;;
39848;SDS011;25518;47.878;15.914;2023-05-07T01:37:42;3.88;;;1.70;;
39848;SDS011;25518;47.878;15.914;2023-05-07T01:40:31;2.87;;;1.40;;
39848;SDS011;25518;47.878;15.914;2023-05-07T01:43:23;3.83;;;1.50;;
39848;SDS011;25518;47.878;15.914;2023-05-07T01:46:13;2.57;;;1.30;;
39848;SDS011;25518;47.878;15.914;2023-05-07T01:49:04;2.58;;;1.50;;
39848;SDS011;25518;47.878;15.914;2023-05-07T01:51:54;3.15;;;1.80;;
39848;SDS011;25518;47.878;15.914;2023-05-07T01:54:44;3.30;;;1.85;;
39848;SDS011;25518;47.878;15.914;2023-05-07T01:57:34;7.70;;;2.25;;
39848;SDS011;25518;47.878;15.914;2023-05-07T02:00:24;3.42;;;1.98;;
39848;SDS011;25518;47.878;15.914;2023-05-07T02:03:14;3.53;;;2.00;;
39848;SDS011;25518;47.878;15.914;2023-05-07T02:06:04;3.10;;;1.77;;
39848;SDS011;25518;47.878;15.914;2023-05-07T02:08:53;4.85;;;1.60;;
39848;SDS011;25518;47.878;15.914;2023-05-07T02:11:43;4.75;;;2.03;;
39848;SDS011;25518;47.878;15.914;2023-05-07T02:14:33;3.05;;;1.83;;
39848;SDS011;25518;47.878;15.914;2023-05-07T02:17:22;3.20;;;1.80;;
39848;SDS011;25518;47.878;15.914;2023-05-07T02:20:12;3.10;;;1.60;;
39848;SDS011;25518;47.878;15.914;2023-05-07T02:23:02;2.80;;;1.70;;
39848;SDS011;25518;47.878;15.914;2023-05-07T02:25:51;3.97;;;1.75;;
39848;SDS011;25518;47.878;15.914;2023-05-07T02:28:41;4.55;;;2.10;;
39848;SDS011;25518;47.878;15.914;2023-05-07T02:31:31;3.92;;;1.90;;
39848;SDS011;25518;47.878;15.914;2023-05-07T02:34:22;3.20;;;1.95;;
39848;SDS011;25518;47.878;15.914;2023-05-07T02:37:12;3.85;;;1.77;;
39848;SDS011;25518;47.878;15.914;2023-05-07T02:40:02;2.70;;;1.50;;
39848;SDS011;25518;47.878;15.914;2023-05-07T02:42:53;3.05;;;1.77;;
39848;SDS011;25518;47.878;15.914;2023-05-07T02:45:42;4.07;;;2.40;;
39848;SDS011;25518;47.878;15.914;2023-05-07T02:48:32;2.78;;;1.63;;
39848;SDS011;25518;47.878;15.914;2023-05-07T02:51:22;3.53;;;1.60;;
39848;SDS011;25518;47.878;15.914;2023-05-07T02:54:12;3.20;;;1.70;;
39848;SDS011;25518;47.878;15.914;2023-05-07T02:57:02;5.18;;;1.95;;
39848;SDS011;25518;47.878;15.914;2023-05-07T02:59:52;3.70;;;1.80;;
39848;SDS011;25518;47.878;15.914;2023-05-07T03:19:44;3.97;;;1.70;;
39848;SDS011;25518;47.878;15.914;2023-05-07T03:22:34;3.75;;;1.55;;
39848;SDS011;25518;47.878;15.914;2023-05-07T03:25:23;3.72;;;1.90;;
39848;SDS011;25518;47.878;15.914;2023-05-07T03:28:14;2.63;;;1.50;;
39848;SDS011;25518;47.878;15.914;2023-05-07T03:31:03;2.72;;;1.40;;
39848;SDS011;25518;47.878;15.914;2023-05-07T03:33:54;4.82;;;2.58;;
39848;SDS011;25518;47.878;15.914;2023-05-07T03:36:45;5.10;;;2.05;;
39848;SDS011;25518;47.878;15.914;2023-05-07T03:39:34;4.30;;;2.35;;
39848;SDS011;25518;47.878;15.914;2023-05-07T03:42:24;2.85;;;1.55;;
39848;SDS011;25518;47.878;15.914;2023-05-07T03:45:14;2.72;;;1.50;;
39848;SDS011;25518;47.878;15.914;2023-05-07T03:48:04;3.85;;;1.70;;
39848;SDS011;25518;47.878;15.914;2023-05-07T03:50:54;3.13;;;1.80;;
39848;SDS011;25518;47.878;15.914;2023-05-07T03:53:45;3.00;;;1.70;;
39848;SDS011;25518;47.878;15.914;2023-05-07T03:56:34;2.95;;;1.60;;
39848;SDS011;25518;47.878;15.914;2023-05-07T03:59:24;3.35;;;1.60;;
39848;SDS011;25518;47.878;15.914;2023-05-07T04:02:14;3.65;;;1.73;;
39848;SDS011;25518;47.878;15.914;2023-05-07T04:05:03;3.30;;;1.67;;
39848;SDS011;25518;47.878;15.914;2023-05-07T04:07:53;3.47;;;1.42;;
39848;SDS011;25518;47.878;15.914;2023-05-07T04:10:43;3.33;;;1.52;;
39848;SDS011;25518;47.878;15.914;2023-05-07T04:13:33;4.43;;;1.70;;
39848;SDS011;25518;47.878;15.914;2023-05-07T04:16:23;3.53;;;1.80;;
39848;SDS011;25518;47.878;15.914;2023-05-07T04:19:12;4.90;;;1.90;;
39848;SDS011;25518;47.878;15.914;2023-05-07T04:22:02;3.88;;;1.98;;
39848;SDS011;25518;47.878;15.914;2023-05-07T04:24:52;3.20;;;1.73;;
39848;SDS011;25518;47.878;15.914;2023-05-07T04:27:41;2.92;;;1.90;;
39848;SDS011;25518;47.878;15.914;2023-05-07T04:30:31;3.22;;;1.80;;
39848;SDS011;25518;47.878;15.914;2023-05-07T04:33:20;3.67;;;2.10;;
39848;SDS011;25518;47.878;15.914;2023-05-07T04:36:10;3.97;;;2.10;;
39848;SDS011;25518;47.878;15.914;2023-05-07T04:39:00;3.13;;;1.80;;
39848;SDS011;25518;47.878;15.914;2023-05-07T04:41:51;2.80;;;1.60;;
39848;SDS011;25518;47.878;15.914;2023-05-07T04:44:41;3.08;;;1.60;;
39848;SDS011;25518;47.878;15.914;2023-05-07T04:47:30;5.13;;;1.80;;
39848;SDS011;25518;47.878;15.914;2023-05-07T04:50:20;2.95;;;1.77;;
39848;SDS011;25518;47.878;15.914;2023-05-07T04:53:12;4.30;;;2.08;;
39848;SDS011;25518;47.878;15.914;2023-05-07T04:56:02;2.95;;;1.67;;
39848;SDS011;25518;47.878;15.914;2023-05-07T04:58:51;3.50;;;1.70;;
39848;SDS011;25518;47.878;15.914;2023-05-07T05:01:41;3.75;;;1.90;;
39848;SDS011;25518;47.878;15.914;2023-05-07T05:04:31;3.90;;;2.05;;
39848;SDS011;25518;47.878;15.914;2023-05-07T05:07:20;4.50;;;2.03;;
39848;SDS011;25518;47.878;15.914;2023-05-07T05:10:10;4.03;;;1.83;;
39848;SDS011;25518;47.878;15.914;2023-05-07T05:13:00;4.00;;;1.90;;
39848;SDS011;25518;47.878;15.914;2023-05-07T05:15:50;4.22;;;2.13;;
39848;SDS011;25518;47.878;15.914;2023-05-07T05:18:39;4.00;;;1.80;;
39848;SDS011;25518;47.878;15.914;2023-05-07T05:21:29;4.15;;;1.95;;
39848;SDS011;25518;47.878;15.914;2023-05-07T05:24:19;4.35;;;2.30;;
39848;SDS011;25518;47.878;15.914;2023-05-07T05:27:09;3.80;;;1.90;;
39848;SDS011;25518;47.878;15.914;2023-05-07T05:29:59;4.82;;;2.15;;
39848;SDS011;25518;47.878;15.914;2023-05-07T05:32:48;4.53;;;2.47;;
39848;SDS011;25518;47.878;15.914;2023-05-07T05:35:38;3.80;;;2.22;;
39848;SDS011;25518;47.878;15.914;2023-05-07T05:38:27;4.80;;;2.42;;
39848;SDS011;25518;47.878;15.914;2023-05-07T05:41:17;5.20;;;2.45;;
39848;SDS011;25518;47.878;15.914;2023-05-07T05:44:07;4.53;;;2.83;;
39848;SDS011;25518;47.878;15.914;2023-05-07T05:46:57;6.33;;;2.73;;
39848;SDS011;25518;47.878;15.914;2023-05-07T05:49:48;9.50;;;4.75;;
39848;SDS011;25518;47.878;15.914;2023-05-07T05:52:37;6.30;;;3.85;;
39848;SDS011;25518;47.878;15.914;2023-05-07T05:55:27;3.58;;;2.35;;
39848;SDS011;25518;47.878;15.914;2023-05-07T05:58:17;4.13;;;2.42;;
39848;SDS011;25518;47.878;15.914;2023-05-07T06:01:07;5.10;;;2.25;;
39848;SDS011;25518;47.878;15.914;2023-05-07T06:03:56;3.50;;;2.00;;
39848;SDS011;25518;47.878;15.914;2023-05-07T06:06:46;3.67;;;2.20;;
39848;SDS011;25518;47.878;15.914;2023-05-07T06:09:35;4.93;;;2.10;;
39848;SDS011;25518;47.878;15.914;2023-05-07T06:12:25;3.95;;;2.05;;
39848;SDS011;25518;47.878;15.914;2023-05-07T06:15:14;4.97;;;2.10;;
39848;SDS011;25518;47.878;15.914;2023-05-07T06:18:04;5.50;;;1.90;;
39848;SDS011;25518;47.878;15.914;2023-05-07T06:20:53;4.95;;;2.13;;
39848;SDS011;25518;47.878;15.914;2023-05-07T06:23:43;5.72;;;2.17;;
39848;SDS011;25518;47.878;15.914;2023-05-07T06:26:33;3.75;;;2.10;;
39848;SDS011;25518;47.878;15.914;2023-05-07T06:29:23;3.60;;;2.00;;
39848;SDS011;25518;47.878;15.914;2023-05-07T06:32:14;3.33;;;1.87;;
39848;SDS011;25518;47.878;15.914;2023-05-07T06:35:04;3.55;;;2.08;;
39848;SDS011;25518;47.878;15.914;2023-05-07T06:37:55;4.88;;;2.60;;
39848;SDS011;25518;47.878;15.914;2023-05-07T06:40:48;4.78;;;2.92;;
39848;SDS011;25518;47.878;15.914;2023-05-07T06:43:38;5.15;;;3.05;;
39848;SDS011;25518;47.878;15.914;2023-05-07T06:46:28;8.18;;;3.95;;
39848;SDS011;25518;47.878;15.914;2023-05-07T06:49:18;4.85;;;3.17;;
39848;SDS011;25518;47.878;15.914;2023-05-07T06:52:08;5.30;;;3.75;;
39848;SDS011;25518;47.878;15.914;2023-05-07T06:54:58;6.63;;;3.80;;
39848;SDS011;25518;47.878;15.914;2023-05-07T06:57:48;6.72;;;4.05;;
39848;SDS011;25518;47.878;15.914;2023-05-07T07:00:38;7.70;;;4.68;;
39848;SDS011;25518;47.878;15.914;2023-05-07T07:03:28;6.35;;;4.20;;
39848;SDS011;25518;47.878;15.914;2023-05-07T07:06:17;8.00;;;4.30;;
39848;SDS011;25518;47.878;15.914;2023-05-07T07:09:07;6.90;;;4.30;;
39848;SDS011;25518;47.878;15.914;2023-05-07T07:11:57;7.55;;;4.78;;
39848;SDS011;25518;47.878;15.914;2023-05-07T07:14:46;7.87;;;4.40;;
39848;SDS011;25518;47.878;15.914;2023-05-07T07:17:36;7.70;;;4.60;;
39848;SDS011;25518;47.878;15.914;2023-05-07T07:20:26;7.63;;;4.55;;
39848;SDS011;25518;47.878;15.914;2023-05-07T07:23:15;6.22;;;4.13;;
39848;SDS011;25518;47.878;15.914;2023-05-07T07:26:05;7.55;;;4.40;;
39848;SDS011;25518;47.878;15.914;2023-05-07T07:28:55;6.97;;;4.72;;
39848;SDS011;25518;47.878;15.914;2023-05-07T07:31:45;5.80;;;4.32;;
39848;SDS011;25518;47.878;15.914;2023-05-07T07:34:36;7.40;;;4.15;;
39848;SDS011;25518;47.878;15.914;2023-05-07T07:37:26;7.65;;;4.53;;
39848;SDS011;25518;47.878;15.914;2023-05-07T07:40:16;7.80;;;4.93;;
39848;SDS011;25518;47.878;15.914;2023-05-07T07:43:05;6.40;;;4.28;;
39848;SDS011;25518;47.878;15.914;2023-05-07T07:45:55;8.10;;;4.03;;
39848;SDS011;25518;47.878;15.914;2023-05-07T07:48:44;8.50;;;4.65;;
39848;SDS011;25518;47.878;15.914;2023-05-07T07:51:34;6.80;;;4.32;;
39848;SDS011;25518;47.878;15.914;2023-05-07T07:54:24;7.00;;;4.35;;
39848;SDS011;25518;47.878;15.914;2023-05-07T07:57:13;6.55;;;4.00;;
39848;SDS011;25518;47.878;15.914;2023-05-07T08:00:03;8.15;;;4.85;;
39848;SDS011;25518;47.878;15.914;2023-05-07T08:02:55;8.85;;;4.35;;
39848;SDS011;25518;47.878;15.914;2023-05-07T08:05:44;6.30;;;4.22;;
39848;SDS011;25518;47.878;15.914;2023-05-07T08:08:34;7.25;;;4.20;;
39848;SDS011;25518;47.878;15.914;2023-05-07T08:11:23;6.10;;;3.80;;
39848;SDS011;25518;47.878;15.914;2023-05-07T08:13:55;6.07;;;3.75;;
39848;SDS011;25518;47.878;15.914;2023-05-07T08:16:26;7.50;;;4.38;;
39848;SDS011;25518;47.878;15.914;2023-05-07T08:18:58;6.82;;;4.00;;
39848;SDS011;25518;47.878;15.914;2023-05-07T08:21:29;7.95;;;4.18;;
39848;SDS011;25518;47.878;15.914;2023-05-07T08:24:01;6.05;;;3.75;;
39848;SDS011;25518;47.878;15.914;2023-05-07T08:26:50;6.03;;;3.97;;
39848;SDS011;25518;47.878;15.914;2023-05-07T08:29:40;7.50;;;4.22;;
39848;SDS011;25518;47.878;15.914;2023-05-07T08:32:11;5.35;;;3.65;;
39848;SDS011;25518;47.878;15.914;2023-05-07T08:34:42;6.37;;;4.40;;
39848;SDS011;25518;47.878;15.914;2023-05-07T08:37:13;5.72;;;3.80;;
39848;SDS011;25518;47.878;15.914;2023-05-07T08:39:44;6.60;;;4.07;;
39848;SDS011;25518;47.878;15.914;2023-05-07T08:42:15;5.85;;;3.97;;
39848;SDS011;25518;47.878;15.914;2023-05-07T08:44:47;6.10;;;4.00;;
39848;SDS011;25518;47.878;15.914;2023-05-07T08:47:23;7.35;;;4.20;;
39848;SDS011;25518;47.878;15.914;2023-05-07T08:50:04;6.30;;;3.67;;
39848;SDS011;25518;47.878;15.914;2023-05-07T08:52:36;6.47;;;3.90;;
39848;SDS011;25518;47.878;15.914;2023-05-07T08:55:08;7.00;;;3.88;;
39848;SDS011;25518;47.878;15.914;2023-05-07T08:57:40;6.30;;;3.80;;
39848;SDS011;25518;47.878;15.914;2023-05-07T09:00:11;7.03;;;3.80;;
39848;SDS011;25518;47.878;15.914;2023-05-07T09:02:43;5.60;;;3.47;;
39848;SDS011;25518;47.878;15.914;2023-05-07T09:05:14;6.35;;;3.88;;
39848;SDS011;25518;47.878;15.914;2023-05-07T09:07:45;6.35;;;4.25;;
39848;SDS011;25518;47.878;15.914;2023-05-07T09:10:35;6.78;;;3.65;;
39848;SDS011;25518;47.878;15.914;2023-05-07T09:13:07;6.97;;;3.83;;
39848;SDS011;25518;47.878;15.914;2023-05-07T09:15:57;5.93;;;3.60;;
39848;SDS011;25518;47.878;15.914;2023-05-07T09:18:59;6.67;;;4.13;;
39848;SDS011;25518;47.878;15.914;2023-05-07T09:21:50;6.43;;;3.75;;
39848;SDS011;25518;47.878;15.914;2023-05-07T09:24:47;6.43;;;3.88;;
39848;SDS011;25518;47.878;15.914;2023-05-07T09:27:37;6.22;;;3.72;;
39848;SDS011;25518;47.878;15.914;2023-05-07T09:30:29;6.72;;;4.05;;
39848;SDS011;25518;47.878;15.914;2023-05-07T09:33:20;7.45;;;4.28;;
39848;SDS011;25518;47.878;15.914;2023-05-07T09:36:09;7.22;;;4.30;;
39848;SDS011;25518;47.878;15.914;2023-05-07T09:38:59;7.25;;;5.00;;
39848;SDS011;25518;47.878;15.914;2023-05-07T09:41:30;9.70;;;4.57;;
39848;SDS011;25518;47.878;15.914;2023-05-07T09:44:23;7.27;;;4.60;;
39848;SDS011;25518;47.878;15.914;2023-05-07T09:47:10;6.23;;;4.70;;
39848;SDS011;25518;47.878;15.914;2023-05-07T09:49:46;7.32;;;5.20;;
39848;SDS011;25518;47.878;15.914;2023-05-07T09:52:18;7.80;;;4.63;;
39848;SDS011;25518;47.878;15.914;2023-05-07T09:54:51;7.82;;;4.60;;
39848;SDS011;25518;47.878;15.914;2023-05-07T09:57:25;7.85;;;4.60;;
39848;SDS011;25518;47.878;15.914;2023-05-07T09:59:58;6.38;;;4.93;;
39848;SDS011;25518;47.878;15.914;2023-05-07T10:02:36;7.18;;;4.88;;
39848;SDS011;25518;47.878;15.914;2023-05-07T10:05:16;7.15;;;4.55;;
39848;SDS011;25518;47.878;15.914;2023-05-07T10:07:50;6.55;;;4.35;;
39848;SDS011;25518;47.878;15.914;2023-05-07T10:10:41;7.55;;;4.70;;
39848;SDS011;25518;47.878;15.914;2023-05-07T10:13:33;7.10;;;4.53;;
39848;SDS011;25518;47.878;15.914;2023-05-07T10:16:24;8.45;;;4.60;;
39848;SDS011;25518;47.878;15.914;2023-05-07T10:19:15;6.55;;;4.45;;
39848;SDS011;25518;47.878;15.914;2023-05-07T10:22:06;6.07;;;4.10;;
39848;SDS011;25518;47.878;15.914;2023-05-07T10:24:57;7.40;;;4.57;;
39848;SDS011;25518;47.878;15.914;2023-05-07T10:27:51;7.53;;;4.57;;
39848;SDS011;25518;47.878;15.914;2023-05-07T10:33:19;6.82;;;4.20;;
39848;SDS011;25518;47.878;15.914;2023-05-07T10:36:13;7.95;;;4.65;;
39848;SDS011;25518;47.878;15.914;2023-05-07T10:39:04;9.57;;;4.80;;
39848;SDS011;25518;47.878;15.914;2023-05-07T10:41:55;7.63;;;3.97;;
39848;SDS011;25518;47.878;15.914;2023-05-07T10:44:32;9.23;;;4.30;;
39848;SDS011;25518;47.878;15.914;2023-05-07T10:47:21;6.43;;;4.22;;
39848;SDS011;25518;47.878;15.914;2023-05-07T11:02:12;6.28;;;4.47;;
39848;SDS011;25518;47.878;15.914;2023-05-07T11:05:33;6.30;;;4.28;;
39848;SDS011;25518;47.878;15.914;2023-05-07T11:08:13;6.23;;;3.87;;
39848;SDS011;25518;47.878;15.914;2023-05-07T11:11:03;9.70;;;4.13;;
39848;SDS011;25518;47.878;15.914;2023-05-07T11:13:52;5.50;;;3.65;;
39848;SDS011;25518;47.878;15.914;2023-05-07T11:16:42;4.80;;;3.15;;
39848;SDS011;25518;47.878;15.914;2023-05-07T11:20:03;6.90;;;4.00;;
39848;SDS011;25518;47.878;15.914;2023-05-07T11:22:44;6.35;;;4.00;;
39848;SDS011;25518;47.878;15.914;2023-05-07T11:25:33;5.65;;;3.70;;
39848;SDS011;25518;47.878;15.914;2023-05-07T11:28:23;6.00;;;3.65;;
39848;SDS011;25518;47.878;15.914;2023-05-07T11:31:12;7.13;;;3.90;;
39848;SDS011;25518;47.878;15.914;2023-05-07T11:34:02;6.72;;;4.38;;
39848;SDS011;25518;47.878;15.914;2023-05-07T11:36:53;5.93;;;3.50;;
39848;SDS011;25518;47.878;15.914;2023-05-07T11:39:42;5.43;;;3.67;;
39848;SDS011;25518;47.878;15.914;2023-05-07T11:42:33;6.03;;;3.85;;
39848;SDS011;25518;47.878;15.914;2023-05-07T11:45:23;6.88;;;3.80;;
39848;SDS011;25518;47.878;15.914;2023-05-07T11:48:14;7.22;;;4.28;;
39848;SDS011;25518;47.878;15.914;2023-05-07T11:51:05;5.45;;;3.65;;
39848;SDS011;25518;47.878;15.914;2023-05-07T11:54:03;5.65;;;3.58;;
39848;SDS011;25518;47.878;15.914;2023-05-07T11:56:57;6.43;;;3.30;;
39848;SDS011;25518;47.878;15.914;2023-05-07T11:59:48;5.65;;;3.55;;
39848;SDS011;25518;47.878;15.914;2023-05-07T12:02:44;6.22;;;4.35;;
39848;SDS011;25518;47.878;15.914;2023-05-07T12:05:34;6.63;;;4.28;;
39848;SDS011;25518;47.878;15.914;2023-05-07T12:08:25;7.03;;;4.18;;
39848;SDS011;25518;47.878;15.914;2023-05-07T12:11:15;7.95;;;4.63;;
39848;SDS011;25518;47.878;15.914;2023-05-07T12:14:11;6.85;;;4.85;;
39848;SDS011;25518;47.878;15.914;2023-05-07T12:17:00;7.37;;;5.00;;
39848;SDS011;25518;47.878;15.914;2023-05-07T12:19:51;9.80;;;4.93;;
39848;SDS011;25518;47.878;15.914;2023-05-07T12:22:42;8.15;;;6.28;;
39848;SDS011;25518;47.878;15.914;2023-05-07T12:25:35;9.77;;;6.00;;
39848;SDS011;25518;47.878;15.914;2023-05-07T12:28:26;7.22;;;5.30;;
39848;SDS011;25518;47.878;15.914;2023-05-07T12:31:16;8.45;;;5.32;;
39848;SDS011;25518;47.878;15.914;2023-05-07T12:34:07;6.75;;;4.97;;
39848;SDS011;25518;47.878;15.914;2023-05-07T12:36:56;7.88;;;5.00;;
39848;SDS011;25518;47.878;15.914;2023-05-07T12:40:03;7.28;;;4.80;;
39848;SDS011;25518;47.878;15.914;2023-05-07T12:42:55;7.50;;;5.22;;
39848;SDS011;25518;47.878;15.914;2023-05-07T12:45:46;7.80;;;4.80;;
39848;SDS011;25518;47.878;15.914;2023-05-07T12:48:37;6.13;;;4.67;;
39848;SDS011;25518;47.878;15.914;2023-05-07T12:51:27;8.35;;;4.38;;
39848;SDS011;25518;47.878;15.914;2023-05-07T12:54:33;6.65;;;4.78;;
39848;SDS011;25518;47.878;15.914;2023-05-07T12:57:26;7.03;;;4.60;;
39848;SDS011;25518;47.878;15.914;2023-05-07T13:00:15;5.55;;;4.00;;
39848;SDS011;25518;47.878;15.914;2023-05-07T13:03:05;8.30;;;3.85;;
39848;SDS011;25518;47.878;15.914;2023-05-07T13:05:56;7.35;;;4.13;;
39848;SDS011;25518;47.878;15.914;2023-05-07T13:08:48;7.60;;;4.47;;
39848;SDS011;25518;47.878;15.914;2023-05-07T13:11:38;7.32;;;5.00;;
39848;SDS011;25518;47.878;15.914;2023-05-07T13:14:27;7.55;;;5.22;;
39848;SDS011;25518;47.878;15.914;2023-05-07T13:17:17;8.52;;;5.10;;
39848;SDS011;25518;47.878;15.914;2023-05-07T13:20:08;7.13;;;5.13;;
39848;SDS011;25518;47.878;15.914;2023-05-07T13:23:00;6.95;;;5.07;;
39848;SDS011;25518;47.878;15.914;2023-05-07T13:25:50;7.40;;;5.10;;
39848;SDS011;25518;47.878;15.914;2023-05-07T13:28:42;7.53;;;5.03;;
39848;SDS011;25518;47.878;15.914;2023-05-07T13:31:32;8.77;;;5.25;;
39848;SDS011;25518;47.878;15.914;2023-05-07T13:34:22;7.20;;;5.00;;
39848;SDS011;25518;47.878;15.914;2023-05-07T13:37:12;7.97;;;5.15;;
39848;SDS011;25518;47.878;15.914;2023-05-07T13:40:01;7.15;;;5.18;;
39848;SDS011;25518;47.878;15.914;2023-05-07T13:42:51;7.03;;;4.80;;
39848;SDS011;25518;47.878;15.914;2023-05-07T13:45:42;9.07;;;5.50;;
39848;SDS011;25518;47.878;15.914;2023-05-07T13:48:31;9.63;;;5.07;;
39848;SDS011;25518;47.878;15.914;2023-05-07T13:51:21;8.02;;;5.18;;
39848;SDS011;25518;47.878;15.914;2023-05-07T13:54:12;9.40;;;5.30;;
39848;SDS011;25518;47.878;15.914;2023-05-07T13:57:01;8.02;;;5.18;;
39848;SDS011;25518;47.878;15.914;2023-05-07T13:59:51;7.40;;;4.63;;
39848;SDS011;25518;47.878;15.914;2023-05-07T14:02:41;7.85;;;5.40;;
39848;SDS011;25518;47.878;15.914;2023-05-07T14:05:30;7.53;;;5.60;;
39848;SDS011;25518;47.878;15.914;2023-05-07T14:08:20;8.77;;;5.88;;
39848;SDS011;25518;47.878;15.914;2023-05-07T14:11:09;10.32;;;6.57;;
39848;SDS011;25518;47.878;15.914;2023-05-07T14:13:59;7.18;;;5.30;;
39848;SDS011;25518;47.878;15.914;2023-05-07T14:16:49;7.90;;;5.05;;
39848;SDS011;25518;47.878;15.914;2023-05-07T14:19:38;7.55;;;5.10;;
39848;SDS011;25518;47.878;15.914;2023-05-07T14:22:28;15.23;;;5.75;;
39848;SDS011;25518;47.878;15.914;2023-05-07T14:25:18;8.52;;;5.43;;
39848;SDS011;25518;47.878;15.914;2023-05-07T14:28:07;8.00;;;4.75;;
39848;SDS011;25518;47.878;15.914;2023-05-07T14:30:57;8.95;;;5.85;;
39848;SDS011;25518;47.878;15.914;2023-05-07T14:33:47;7.05;;;4.80;;
39848;SDS011;25518;47.878;15.914;2023-05-07T14:36:38;7.75;;;4.57;;
39848;SDS011;25518;47.878;15.914;2023-05-07T14:39:28;7.97;;;4.90;;
39848;SDS011;25518;47.878;15.914;2023-05-07T14:42:18;7.73;;;4.40;;
39848;SDS011;25518;47.878;15.914;2023-05-07T14:45:08;6.50;;;4.70;;
39848;SDS011;25518;47.878;15.914;2023-05-07T14:47:58;7.68;;;5.00;;
39848;SDS011;25518;47.878;15.914;2023-05-07T14:50:48;7.25;;;4.95;;
39848;SDS011;25518;47.878;15.914;2023-05-07T14:53:38;8.68;;;4.53;;
39848;SDS011;25518;47.878;15.914;2023-05-07T14:56:28;7.90;;;5.10;;
39848;SDS011;25518;47.878;15.914;2023-05-07T14:59:18;6.38;;;4.40;;
39848;SDS011;25518;47.878;15.914;2023-05-07T15:02:12;7.60;;;5.53;;
39848;SDS011;25518;47.878;15.914;2023-05-07T15:05:01;8.55;;;5.25;;
39848;SDS011;25518;47.878;15.914;2023-05-07T15:07:51;7.82;;;5.35;;
39848;SDS011;25518;47.878;15.914;2023-05-07T15:10:41;10.27;;;5.80;;
39848;SDS011;25518;47.878;15.914;2023-05-07T15:13:30;7.45;;;5.10;;
39848;SDS011;25518;47.878;15.914;2023-05-07T15:16:20;8.20;;;5.00;;
39848;SDS011;25518;47.878;15.914;2023-05-07T15:19:09;7.70;;;5.07;;
39848;SDS011;25518;47.878;15.914;2023-05-07T15:21:59;6.20;;;4.28;;
39848;SDS011;25518;47.878;15.914;2023-05-07T15:24:51;6.67;;;4.53;;
39848;SDS011;25518;47.878;15.914;2023-05-07T15:27:41;8.07;;;4.70;;
39848;SDS011;25518;47.878;15.914;2023-05-07T15:30:30;7.55;;;4.72;;
39848;SDS011;25518;47.878;15.914;2023-05-07T15:33:20;8.83;;;5.50;;
39848;SDS011;25518;47.878;15.914;2023-05-07T15:36:09;6.93;;;5.00;;
39848;SDS011;25518;47.878;15.914;2023-05-07T15:38:59;9.03;;;4.93;;
39848;SDS011;25518;47.878;15.914;2023-05-07T15:41:51;7.27;;;4.97;;
39848;SDS011;25518;47.878;15.914;2023-05-07T15:44:40;8.30;;;5.70;;
39848;SDS011;25518;47.878;15.914;2023-05-07T15:47:31;10.70;;;6.35;;
39848;SDS011;25518;47.878;15.914;2023-05-07T15:50:23;10.02;;;6.55;;
39848;SDS011;25518;47.878;15.914;2023-05-07T15:53:13;8.10;;;5.57;;
39848;SDS011;25518;47.878;15.914;2023-05-07T15:56:02;8.23;;;5.88;;
39848;SDS011;25518;47.878;15.914;2023-05-07T15:58:51;7.93;;;5.20;;
39848;SDS011;25518;47.878;15.914;2023-05-07T16:01:41;8.50;;;5.50;;
39848;SDS011;25518;47.878;15.914;2023-05-07T16:04:33;9.02;;;6.25;;
39848;SDS011;25518;47.878;15.914;2023-05-07T16:07:22;8.48;;;5.30;;
39848;SDS011;25518;47.878;15.914;2023-05-07T16:10:12;8.25;;;4.90;;
39848;SDS011;25518;47.878;15.914;2023-05-07T16:13:02;8.67;;;4.87;;
39848;SDS011;25518;47.878;15.914;2023-05-07T16:15:55;8.00;;;5.20;;
39848;SDS011;25518;47.878;15.914;2023-05-07T16:18:46;8.32;;;5.28;;
39848;SDS011;25518;47.878;15.914;2023-05-07T16:21:35;6.90;;;4.45;;
39848;SDS011;25518;47.878;15.914;2023-05-07T16:24:25;8.05;;;4.20;;
39848;SDS011;25518;47.878;15.914;2023-05-07T16:27:15;7.68;;;4.72;;
39848;SDS011;25518;47.878;15.914;2023-05-07T16:30:04;6.75;;;4.68;;
39848;SDS011;25518;47.878;15.914;2023-05-07T16:32:55;7.32;;;4.35;;
39848;SDS011;25518;47.878;15.914;2023-05-07T16:35:49;7.37;;;4.53;;
39848;SDS011;25518;47.878;15.914;2023-05-07T16:38:41;6.93;;;4.40;;
39848;SDS011;25518;47.878;15.914;2023-05-07T16:41:30;8.20;;;4.65;;
39848;SDS011;25518;47.878;15.914;2023-05-07T16:44:20;6.80;;;4.88;;
39848;SDS011;25518;47.878;15.914;2023-05-07T16:47:10;7.30;;;4.65;;
39848;SDS011;25518;47.878;15.914;2023-05-07T16:49:59;7.20;;;4.38;;
39848;SDS011;25518;47.878;15.914;2023-05-07T16:52:49;6.03;;;4.07;;
39848;SDS011;25518;47.878;15.914;2023-05-07T16:55:39;6.28;;;4.38;;
39848;SDS011;25518;47.878;15.914;2023-05-07T16:58:29;6.47;;;4.03;;
39848;SDS011;25518;47.878;15.914;2023-05-07T17:01:19;7.23;;;4.90;;
39848;SDS011;25518;47.878;15.914;2023-05-07T17:04:09;6.87;;;4.00;;
39848;SDS011;25518;47.878;15.914;2023-05-07T17:06:58;6.07;;;3.80;;
39848;SDS011;25518;47.878;15.914;2023-05-07T17:09:48;6.55;;;4.20;;
39848;SDS011;25518;47.878;15.914;2023-05-07T17:12:38;6.28;;;3.92;;